sensor_id;sensor_type;location;lat;lon;timestamp;pressure;altitude;pressure_sealevel;temperature
24639;BMP180;1641;51.306;12.384;2023-04-12T00:00:34;99773.00;;;7.00
24639;BMP180;1641;51.306;12.384;2023-04-12T00:03:04;99758.00;;;7.10
24639;BMP180;1641;51.306;12.384;2023-04-12T00:05:29;99770.00;;;6.90
24639;BMP180;1641;51.306;12.384;2023-04-12T00:07:54;99764.00;;;6.80
24639;BMP180;1641;51.306;12.384;2023-04-12T00:10:24;99760.00;;;6.90
24639;BMP180;1641;51.306;12.384;2023-04-12T00:12:53;99747.00;;;7.10
24639;BMP180;1641;51.306;12.384;2023-04-12T00:15:18;99756.00;;;7.00
24639;BMP180;1641;51.306;12.384;2023-04-12T00:17:49;99751.00;;;7.10
24639;BMP180;1641;51.306;12.384;2023-04-12T00:20:30;99757.00;;;7.00
24639;BMP180;1641;51.306;12.384;2023-04-12T00:22:58;99747.00;;;6.90
24639;BMP180;1641;51.306;12.384;2023-04-12T00:25:23;99737.00;;;6.90
24639;BMP180;1641;51.306;12.384;2023-04-12T00:27:58;99733.00;;;7.00
24639;BMP180;1641;51.306;12.384;2023-04-12T00:30:24;99733.00;;;6.70
24639;BMP180;1641;51.306;12.384;2023-04-12T00:32:49;99733.00;;;6.90
24639;BMP180;1641;51.306;12.384;2023-04-12T00:35:16;99732.00;;;6.80
24639;BMP180;1641;51.306;12.384;2023-04-12T00:37:57;99728.00;;;6.70
24639;BMP180;1641;51.306;12.384;2023-04-12T00:40:22;99723.00;;;6.60
24639;BMP180;1641;51.306;12.384;2023-04-12T00:42:56;99719.00;;;6.80
24639;BMP180;1641;51.306;12.384;2023-04-12T00:45:23;99722.00;;;6.60
24639;BMP180;1641;51.306;12.384;2023-04-12T00:47:52;99719.00;;;6.70
24639;BMP180;1641;51.306;12.384;2023-04-12T00:50:18;99702.00;;;6.90
24639;BMP180;1641;51.306;12.384;2023-04-12T00:52:45;99691.00;;;6.70
24639;BMP180;1641;51.306;12.384;2023-04-12T00:55:13;99704.00;;;6.50
24639;BMP180;1641;51.306;12.384;2023-04-12T00:57:40;99667.00;;;6.40
24639;BMP180;1641;51.306;12.384;2023-04-12T01:00:08;99693.00;;;6.50
24639;BMP180;1641;51.306;12.384;2023-04-12T01:02:36;99690.00;;;6.50
24639;BMP180;1641;51.306;12.384;2023-04-12T01:05:06;99684.00;;;6.40
24639;BMP180;1641;51.306;12.384;2023-04-12T01:07:48;99692.00;;;6.50
24639;BMP180;1641;51.306;12.384;2023-04-12T01:10:48;99685.00;;;6.40
24639;BMP180;1641;51.306;12.384;2023-04-12T01:13:50;99688.00;;;6.60
24639;BMP180;1641;51.306;12.384;2023-04-12T01:16:29;99682.00;;;6.40
24639;BMP180;1641;51.306;12.384;2023-04-12T01:21:59;99682.00;;;6.50
24639;BMP180;1641;51.306;12.384;2023-04-12T01:27:44;99663.00;;;6.80
24639;BMP180;1641;51.306;12.384;2023-04-12T01:30:12;99652.00;;;6.80
24639;BMP180;1641;51.306;12.384;2023-04-12T01:32:50;99654.00;;;6.80
24639;BMP180;1641;51.306;12.384;2023-04-12T01:35:18;99644.00;;;6.50
24639;BMP180;1641;51.306;12.384;2023-04-12T01:37:44;99642.00;;;6.70
24639;BMP180;1641;51.306;12.384;2023-04-12T01:40:11;99646.00;;;6.90
24639;BMP180;1641;51.306;12.384;2023-04-12T01:42:37;99647.00;;;6.80
24639;BMP180;1641;51.306;12.384;2023-04-12T01:45:07;99642.00;;;6.90
24639;BMP180;1641;51.306;12.384;2023-04-12T01:47:32;99641.00;;;6.90
24639;BMP180;1641;51.306;12.384;2023-04-12T01:50:10;99633.00;;;7.00
24639;BMP180;1641;51.306;12.384;2023-04-12T01:52:41;99626.00;;;6.90
24639;BMP180;1641;51.306;12.384;2023-04-12T01:55:11;99633.00;;;7.00
24639;BMP180;1641;51.306;12.384;2023-04-12T01:57:38;99610.00;;;6.80
24639;BMP180;1641;51.306;12.384;2023-04-12T02:00:05;99634.00;;;6.70
24639;BMP180;1641;51.306;12.384;2023-04-12T02:02:32;99628.00;;;6.60
24639;BMP180;1641;51.306;12.384;2023-04-12T02:05:00;99604.00;;;6.70
24639;BMP180;1641;51.306;12.384;2023-04-12T02:07:26;99625.00;;;6.60
24639;BMP180;1641;51.306;12.384;2023-04-12T02:09:51;99591.00;;;6.50
24639;BMP180;1641;51.306;12.384;2023-04-12T02:12:17;99619.00;;;6.70
24639;BMP180;1641;51.306;12.384;2023-04-12T02:14:45;99596.00;;;6.60
24639;BMP180;1641;51.306;12.384;2023-04-12T02:17:15;99610.00;;;6.80
24639;BMP180;1641;51.306;12.384;2023-04-12T02:19:41;99608.00;;;6.80
24639;BMP180;1641;51.306;12.384;2023-04-12T02:22:07;99607.00;;;6.80
24639;BMP180;1641;51.306;12.384;2023-04-12T02:24:32;99609.00;;;6.90
24639;BMP180;1641;51.306;12.384;2023-04-12T02:26:57;99577.00;;;7.00
24639;BMP180;1641;51.306;12.384;2023-04-12T02:29:23;99602.00;;;7.00
24639;BMP180;1641;51.306;12.384;2023-04-12T02:31:48;99552.00;;;6.80
24639;BMP180;1641;51.306;12.384;2023-04-12T02:34:14;99589.00;;;6.90
24639;BMP180;1641;51.306;12.384;2023-04-12T02:36:45;99570.00;;;6.80
24639;BMP180;1641;51.306;12.384;2023-04-12T02:39:10;99582.00;;;6.80
24639;BMP180;1641;51.306;12.384;2023-04-12T02:41:35;99575.00;;;6.70
24639;BMP180;1641;51.306;12.384;2023-04-12T02:44:01;99579.00;;;6.90
24639;BMP180;1641;51.306;12.384;2023-04-12T02:46:26;99582.00;;;6.90
24639;BMP180;1641;51.306;12.384;2023-04-12T02:48:51;99562.00;;;6.80
24639;BMP180;1641;51.306;12.384;2023-04-12T02:51:17;99574.00;;;7.00
24639;BMP180;1641;51.306;12.384;2023-04-12T02:53:42;99560.00;;;6.90
24639;BMP180;1641;51.306;12.384;2023-04-12T02:56:08;99564.00;;;6.80
24639;BMP180;1641;51.306;12.384;2023-04-12T02:58:34;99542.00;;;7.00
24639;BMP180;1641;51.306;12.384;2023-04-12T03:01:01;99543.00;;;6.70
24639;BMP180;1641;51.306;12.384;2023-04-12T03:03:32;99536.00;;;6.70
24639;BMP180;1641;51.306;12.384;2023-04-12T03:05:58;99525.00;;;6.60
24639;BMP180;1641;51.306;12.384;2023-04-12T03:08:23;99522.00;;;6.40
24639;BMP180;1641;51.306;12.384;2023-04-12T03:10:48;99503.00;;;6.50
24639;BMP180;1641;51.306;12.384;2023-04-12T03:13:13;99532.00;;;6.50
24639;BMP180;1641;51.306;12.384;2023-04-12T03:15:39;99533.00;;;6.50
24639;BMP180;1641;51.306;12.384;2023-04-12T03:18:04;99495.00;;;6.60
24639;BMP180;1641;51.306;12.384;2023-04-12T03:20:30;99467.00;;;6.40
24639;BMP180;1641;51.306;12.384;2023-04-12T03:22:55;99524.00;;;6.50
24639;BMP180;1641;51.306;12.384;2023-04-12T03:25:21;99505.00;;;6.40
24639;BMP180;1641;51.306;12.384;2023-04-12T03:27:46;99495.00;;;6.50
24639;BMP180;1641;51.306;12.384;2023-04-12T03:30:11;99506.00;;;6.30
24639;BMP180;1641;51.306;12.384;2023-04-12T03:32:38;99452.00;;;6.20
24639;BMP180;1641;51.306;12.384;2023-04-12T03:35:05;99499.00;;;6.20
24639;BMP180;1641;51.306;12.384;2023-04-12T03:37:32;99495.00;;;6.20
24639;BMP180;1641;51.306;12.384;2023-04-12T03:39:57;99496.00;;;6.30
24639;BMP180;1641;51.306;12.384;2023-04-12T03:42:22;99477.00;;;6.30
24639;BMP180;1641;51.306;12.384;2023-04-12T03:44:47;99445.00;;;6.30
24639;BMP180;1641;51.306;12.384;2023-04-12T03:47:13;99468.00;;;6.30
24639;BMP180;1641;51.306;12.384;2023-04-12T03:49:38;99491.00;;;6.30
24639;BMP180;1641;51.306;12.384;2023-04-12T03:52:04;99495.00;;;6.40
24639;BMP180;1641;51.306;12.384;2023-04-12T03:54:30;99485.00;;;6.40
24639;BMP180;1641;51.306;12.384;2023-04-12T03:56:55;99490.00;;;6.40
24639;BMP180;1641;51.306;12.384;2023-04-12T03:59:20;99485.00;;;6.10
24639;BMP180;1641;51.306;12.384;2023-04-12T04:01:46;99470.00;;;6.30
24639;BMP180;1641;51.306;12.384;2023-04-12T04:04:11;99470.00;;;6.30
24639;BMP180;1641;51.306;12.384;2023-04-12T04:06:37;99449.00;;;6.10
24639;BMP180;1641;51.306;12.384;2023-04-12T04:09:02;99471.00;;;6.20
24639;BMP180;1641;51.306;12.384;2023-04-12T04:11:28;99463.00;;;6.30
24639;BMP180;1641;51.306;12.384;2023-04-12T04:13:53;99464.00;;;6.40
24639;BMP180;1641;51.306;12.384;2023-04-12T04:16:18;99463.00;;;6.40
24639;BMP180;1641;51.306;12.384;2023-04-12T04:18:43;99422.00;;;6.20
24639;BMP180;1641;51.306;12.384;2023-04-12T04:21:09;99457.00;;;6.30
24639;BMP180;1641;51.306;12.384;2023-04-12T04:23:34;99458.00;;;6.30
24639;BMP180;1641;51.306;12.384;2023-04-12T04:26:03;99452.00;;;6.50
24639;BMP180;1641;51.306;12.384;2023-04-12T04:28:29;99459.00;;;6.50
24639;BMP180;1641;51.306;12.384;2023-04-12T04:30:54;99446.00;;;6.40
24639;BMP180;1641;51.306;12.384;2023-04-12T04:33:20;99403.00;;;6.40
24639;BMP180;1641;51.306;12.384;2023-04-12T04:35:45;99407.00;;;6.50
24639;BMP180;1641;51.306;12.384;2023-04-12T04:38:10;99445.00;;;6.60
24639;BMP180;1641;51.306;12.384;2023-04-12T04:40:36;99446.00;;;6.60
24639;BMP180;1641;51.306;12.384;2023-04-12T04:43:02;99446.00;;;6.80
24639;BMP180;1641;51.306;12.384;2023-04-12T04:45:27;99435.00;;;6.60
24639;BMP180;1641;51.306;12.384;2023-04-12T04:47:53;99446.00;;;6.80
24639;BMP180;1641;51.306;12.384;2023-04-12T04:50:20;99438.00;;;6.60
24639;BMP180;1641;51.306;12.384;2023-04-12T04:52:51;99430.00;;;6.20
24639;BMP180;1641;51.306;12.384;2023-04-12T04:55:17;99424.00;;;6.50
24639;BMP180;1641;51.306;12.384;2023-04-12T04:57:43;99391.00;;;6.60
24639;BMP180;1641;51.306;12.384;2023-04-12T05:00:08;99420.00;;;6.70
24639;BMP180;1641;51.306;12.384;2023-04-12T05:02:39;99416.00;;;6.80
24639;BMP180;1641;51.306;12.384;2023-04-12T05:05:07;99405.00;;;6.90
24639;BMP180;1641;51.306;12.384;2023-04-12T05:07:33;99410.00;;;7.00
24639;BMP180;1641;51.306;12.384;2023-04-12T05:09:58;99413.00;;;7.20
24639;BMP180;1641;51.306;12.384;2023-04-12T05:12:23;99397.00;;;7.40
24639;BMP180;1641;51.306;12.384;2023-04-12T05:14:48;99398.00;;;7.40
24639;BMP180;1641;51.306;12.384;2023-04-12T05:17:14;99401.00;;;7.20
24639;BMP180;1641;51.306;12.384;2023-04-12T05:19:40;99395.00;;;6.90
24639;BMP180;1641;51.306;12.384;2023-04-12T05:22:05;99387.00;;;7.00
24639;BMP180;1641;51.306;12.384;2023-04-12T05:24:30;99365.00;;;7.10
24639;BMP180;1641;51.306;12.384;2023-04-12T05:26:56;99371.00;;;7.40
24639;BMP180;1641;51.306;12.384;2023-04-12T05:29:21;99381.00;;;7.60
24639;BMP180;1641;51.306;12.384;2023-04-12T05:31:46;99378.00;;;7.40
24639;BMP180;1641;51.306;12.384;2023-04-12T05:34:11;99379.00;;;7.50
24639;BMP180;1641;51.306;12.384;2023-04-12T05:36:36;99374.00;;;7.60
24639;BMP180;1641;51.306;12.384;2023-04-12T05:39:02;99378.00;;;7.30
24639;BMP180;1641;51.306;12.384;2023-04-12T05:41:27;99366.00;;;7.40
24639;BMP180;1641;51.306;12.384;2023-04-12T05:43:53;99321.00;;;7.70
24639;BMP180;1641;51.306;12.384;2023-04-12T05:46:18;99362.00;;;7.90
24639;BMP180;1641;51.306;12.384;2023-04-12T05:48:43;99361.00;;;7.90
24639;BMP180;1641;51.306;12.384;2023-04-12T05:51:08;99353.00;;;8.00
24639;BMP180;1641;51.306;12.384;2023-04-12T05:53:34;99355.00;;;8.30
24639;BMP180;1641;51.306;12.384;2023-04-12T05:55:59;99354.00;;;8.40
24639;BMP180;1641;51.306;12.384;2023-04-12T05:58:24;99338.00;;;8.10
24639;BMP180;1641;51.306;12.384;2023-04-12T06:00:49;99352.00;;;8.00
24639;BMP180;1641;51.306;12.384;2023-04-12T06:03:15;99340.00;;;7.90
24639;BMP180;1641;51.306;12.384;2023-04-12T06:05:40;99341.00;;;8.10
24639;BMP180;1641;51.306;12.384;2023-04-12T06:08:06;99351.00;;;8.40
24639;BMP180;1641;51.306;12.384;2023-04-12T06:10:32;99340.00;;;8.60
24639;BMP180;1641;51.306;12.384;2023-04-12T06:12:57;99329.00;;;9.20
24639;BMP180;1641;51.306;12.384;2023-04-12T06:15:23;99314.00;;;9.20
24639;BMP180;1641;51.306;12.384;2023-04-12T06:17:48;99320.00;;;9.50
24639;BMP180;1641;51.306;12.384;2023-04-12T06:20:15;99327.00;;;10.00
24639;BMP180;1641;51.306;12.384;2023-04-12T06:22:40;99314.00;;;10.20
24639;BMP180;1641;51.306;12.384;2023-04-12T06:25:06;99316.00;;;10.80
24639;BMP180;1641;51.306;12.384;2023-04-12T06:27:35;99316.00;;;11.30
24639;BMP180;1641;51.306;12.384;2023-04-12T06:30:00;99320.00;;;12.10
24639;BMP180;1641;51.306;12.384;2023-04-12T06:32:25;99304.00;;;12.90
24639;BMP180;1641;51.306;12.384;2023-04-12T06:34:51;99309.00;;;13.30
24639;BMP180;1641;51.306;12.384;2023-04-12T06:37:20;99300.00;;;13.80
24639;BMP180;1641;51.306;12.384;2023-04-12T06:39:45;99309.00;;;14.60
24639;BMP180;1641;51.306;12.384;2023-04-12T06:42:11;99293.00;;;14.40
24639;BMP180;1641;51.306;12.384;2023-04-12T06:44:36;99294.00;;;15.00
24639;BMP180;1641;51.306;12.384;2023-04-12T06:47:01;99277.00;;;15.20
24639;BMP180;1641;51.306;12.384;2023-04-12T06:49:26;99289.00;;;16.30
24639;BMP180;1641;51.306;12.384;2023-04-12T06:51:51;99288.00;;;16.00
24639;BMP180;1641;51.306;12.384;2023-04-12T06:54:17;99283.00;;;16.30
24639;BMP180;1641;51.306;12.384;2023-04-12T06:56:42;99287.00;;;15.40
24639;BMP180;1641;51.306;12.384;2023-04-12T06:59:07;99287.00;;;15.10
24639;BMP180;1641;51.306;12.384;2023-04-12T07:01:33;99292.00;;;15.70
24639;BMP180;1641;51.306;12.384;2023-04-12T07:03:58;99286.00;;;17.00
24639;BMP180;1641;51.306;12.384;2023-04-12T07:06:23;99277.00;;;17.10
24639;BMP180;1641;51.306;12.384;2023-04-12T07:08:51;99270.00;;;16.80
24639;BMP180;1641;51.306;12.384;2023-04-12T07:11:23;99248.00;;;16.70
24639;BMP180;1641;51.306;12.384;2023-04-12T07:13:48;99263.00;;;15.50
24639;BMP180;1641;51.306;12.384;2023-04-12T07:16:13;99253.00;;;16.30
24639;BMP180;1641;51.306;12.384;2023-04-12T07:18:39;99259.00;;;16.20
24639;BMP180;1641;51.306;12.384;2023-04-12T07:21:04;99230.00;;;17.50
24639;BMP180;1641;51.306;12.384;2023-04-12T07:23:30;99260.00;;;16.90
24639;BMP180;1641;51.306;12.384;2023-04-12T07:25:58;99243.00;;;17.70
24639;BMP180;1641;51.306;12.384;2023-04-12T07:28:30;99233.00;;;17.00
24639;BMP180;1641;51.306;12.384;2023-04-12T07:30:55;99222.00;;;16.50
24639;BMP180;1641;51.306;12.384;2023-04-12T07:33:20;99203.00;;;16.80
24639;BMP180;1641;51.306;12.384;2023-04-12T07:35:45;99216.00;;;16.80
24639;BMP180;1641;51.306;12.384;2023-04-12T07:38:11;99219.00;;;17.30
24639;BMP180;1641;51.306;12.384;2023-04-12T07:40:36;99205.00;;;17.70
24639;BMP180;1641;51.306;12.384;2023-04-12T07:43:01;99213.00;;;18.20
24639;BMP180;1641;51.306;12.384;2023-04-12T07:45:26;99210.00;;;19.50
24639;BMP180;1641;51.306;12.384;2023-04-12T07:47:52;99210.00;;;18.70
24639;BMP180;1641;51.306;12.384;2023-04-12T07:50:17;99201.00;;;18.60
24639;BMP180;1641;51.306;12.384;2023-04-12T07:52:42;99204.00;;;18.70
24639;BMP180;1641;51.306;12.384;2023-04-12T07:55:08;99198.00;;;20.00
24639;BMP180;1641;51.306;12.384;2023-04-12T07:57:43;99194.00;;;20.10
24639;BMP180;1641;51.306;12.384;2023-04-12T08:00:08;99197.00;;;19.60
24639;BMP180;1641;51.306;12.384;2023-04-12T08:02:40;99131.00;;;18.30
24639;BMP180;1641;51.306;12.384;2023-04-12T08:05:05;99187.00;;;18.90
24639;BMP180;1641;51.306;12.384;2023-04-12T08:07:31;99178.00;;;19.40
24639;BMP180;1641;51.306;12.384;2023-04-12T08:09:56;99178.00;;;20.10
24639;BMP180;1641;51.306;12.384;2023-04-12T08:12:21;99171.00;;;19.80
24639;BMP180;1641;51.306;12.384;2023-04-12T08:14:47;99128.00;;;19.60
24639;BMP180;1641;51.306;12.384;2023-04-12T08:17:12;99160.00;;;18.90
24639;BMP180;1641;51.306;12.384;2023-04-12T08:19:37;99159.00;;;17.50
24639;BMP180;1641;51.306;12.384;2023-04-12T08:22:03;99148.00;;;17.90
24639;BMP180;1641;51.306;12.384;2023-04-12T08:24:28;99153.00;;;16.90
24639;BMP180;1641;51.306;12.384;2023-04-12T08:26:54;99167.00;;;17.10
24639;BMP180;1641;51.306;12.384;2023-04-12T08:29:20;99169.00;;;16.90
24639;BMP180;1641;51.306;12.384;2023-04-12T08:31:45;99131.00;;;16.40
24639;BMP180;1641;51.306;12.384;2023-04-12T08:34:23;99159.00;;;15.50
24639;BMP180;1641;51.306;12.384;2023-04-12T08:36:49;99169.00;;;16.90
24639;BMP180;1641;51.306;12.384;2023-04-12T08:39:14;99159.00;;;18.00
24639;BMP180;1641;51.306;12.384;2023-04-12T08:41:39;99136.00;;;18.30
24639;BMP180;1641;51.306;12.384;2023-04-12T08:44:10;99139.00;;;19.60
24639;BMP180;1641;51.306;12.384;2023-04-12T08:46:35;99135.00;;;20.20
24639;BMP180;1641;51.306;12.384;2023-04-12T08:49:04;99125.00;;;19.40
24639;BMP180;1641;51.306;12.384;2023-04-12T08:51:33;99126.00;;;18.80
24639;BMP180;1641;51.306;12.384;2023-04-12T08:54:00;99117.00;;;18.30
24639;BMP180;1641;51.306;12.384;2023-04-12T08:56:28;99124.00;;;18.60
24639;BMP180;1641;51.306;12.384;2023-04-12T08:58:54;99114.00;;;19.40
24639;BMP180;1641;51.306;12.384;2023-04-12T09:01:26;99114.00;;;19.50
24639;BMP180;1641;51.306;12.384;2023-04-12T09:03:55;99107.00;;;20.40
24639;BMP180;1641;51.306;12.384;2023-04-12T09:06:20;99100.00;;;20.50
24639;BMP180;1641;51.306;12.384;2023-04-12T09:08:53;99100.00;;;20.60
24639;BMP180;1641;51.306;12.384;2023-04-12T09:11:24;99097.00;;;20.40
24639;BMP180;1641;51.306;12.384;2023-04-12T09:13:49;99090.00;;;19.30
24639;BMP180;1641;51.306;12.384;2023-04-12T09:16:36;99091.00;;;20.00
24639;BMP180;1641;51.306;12.384;2023-04-12T09:19:01;99083.00;;;20.20
24639;BMP180;1641;51.306;12.384;2023-04-12T09:21:27;99081.00;;;19.30
24639;BMP180;1641;51.306;12.384;2023-04-12T09:24:09;99086.00;;;17.60
24639;BMP180;1641;51.306;12.384;2023-04-12T09:26:35;99082.00;;;17.70
24639;BMP180;1641;51.306;12.384;2023-04-12T09:29:04;99050.00;;;17.60
24639;BMP180;1641;51.306;12.384;2023-04-12T09:31:35;99052.00;;;17.90
24639;BMP180;1641;51.306;12.384;2023-04-12T09:34:06;99074.00;;;18.40
24639;BMP180;1641;51.306;12.384;2023-04-12T09:36:39;99059.00;;;18.60
24639;BMP180;1641;51.306;12.384;2023-04-12T09:39:04;99052.00;;;18.60
24639;BMP180;1641;51.306;12.384;2023-04-12T09:41:30;99048.00;;;19.10
24639;BMP180;1641;51.306;12.384;2023-04-12T09:44:00;99039.00;;;19.80
24639;BMP180;1641;51.306;12.384;2023-04-12T09:46:26;99025.00;;;19.20
24639;BMP180;1641;51.306;12.384;2023-04-12T09:49:00;99041.00;;;17.80
24639;BMP180;1641;51.306;12.384;2023-04-12T09:51:31;99000.00;;;16.50
24639;BMP180;1641;51.306;12.384;2023-04-12T09:53:59;99008.00;;;16.70
24639;BMP180;1641;51.306;12.384;2023-04-12T09:56:27;99015.00;;;15.30
24639;BMP180;1641;51.306;12.384;2023-04-12T09:58:53;99010.00;;;15.70
24639;BMP180;1641;51.306;12.384;2023-04-12T10:01:20;99018.00;;;16.00
24639;BMP180;1641;51.306;12.384;2023-04-12T10:03:46;99003.00;;;15.70
24639;BMP180;1641;51.306;12.384;2023-04-12T10:06:12;98992.00;;;16.00
24639;BMP180;1641;51.306;12.384;2023-04-12T10:08:38;98996.00;;;16.10
24639;BMP180;1641;51.306;12.384;2023-04-12T10:11:05;98977.00;;;16.60
24639;BMP180;1641;51.306;12.384;2023-04-12T10:13:35;98946.00;;;16.10
24639;BMP180;1641;51.306;12.384;2023-04-12T10:16:03;98987.00;;;16.20
24639;BMP180;1641;51.306;12.384;2023-04-12T10:18:30;98945.00;;;16.80
24639;BMP180;1641;51.306;12.384;2023-04-12T10:20:56;98967.00;;;16.90
24639;BMP180;1641;51.306;12.384;2023-04-12T10:23:22;98966.00;;;16.50
24639;BMP180;1641;51.306;12.384;2023-04-12T10:25:47;98968.00;;;16.30
24639;BMP180;1641;51.306;12.384;2023-04-12T10:28:17;98967.00;;;15.90
24639;BMP180;1641;51.306;12.384;2023-04-12T10:30:43;98961.00;;;16.10
24639;BMP180;1641;51.306;12.384;2023-04-12T10:33:09;98958.00;;;16.10
24639;BMP180;1641;51.306;12.384;2023-04-12T10:35:49;98947.00;;;16.10
24639;BMP180;1641;51.306;12.384;2023-04-12T10:38:15;98935.00;;;15.90
24639;BMP180;1641;51.306;12.384;2023-04-12T10:41:12;98935.00;;;16.60
24639;BMP180;1641;51.306;12.384;2023-04-12T10:43:40;98929.00;;;15.80
24639;BMP180;1641;51.306;12.384;2023-04-12T10:46:05;98933.00;;;15.30
24639;BMP180;1641;51.306;12.384;2023-04-12T10:48:38;98932.00;;;15.50
24639;BMP180;1641;51.306;12.384;2023-04-12T10:51:17;98927.00;;;15.30
24639;BMP180;1641;51.306;12.384;2023-04-12T10:53:53;98927.00;;;15.50
24639;BMP180;1641;51.306;12.384;2023-04-12T10:56:42;98912.00;;;15.70
24639;BMP180;1641;51.306;12.384;2023-04-12T10:59:09;98924.00;;;16.20
24639;BMP180;1641;51.306;12.384;2023-04-12T11:01:35;98917.00;;;15.60
24639;BMP180;1641;51.306;12.384;2023-04-12T11:04:04;98896.00;;;15.60
24639;BMP180;1641;51.306;12.384;2023-04-12T11:09:37;98895.00;;;15.60
24639;BMP180;1641;51.306;12.384;2023-04-12T11:14:48;98898.00;;;15.70
24639;BMP180;1641;51.306;12.384;2023-04-12T11:19:50;98864.00;;;15.40
24639;BMP180;1641;51.306;12.384;2023-04-12T11:22:17;98881.00;;;15.70
24639;BMP180;1641;51.306;12.384;2023-04-12T11:24:48;98871.00;;;15.70
24639;BMP180;1641;51.306;12.384;2023-04-12T11:27:14;98855.00;;;15.50
24639;BMP180;1641;51.306;12.384;2023-04-12T11:29:43;98858.00;;;15.90
24639;BMP180;1641;51.306;12.384;2023-04-12T11:32:10;98860.00;;;16.10
24639;BMP180;1641;51.306;12.384;2023-04-12T11:34:40;98811.00;;;16.00
24639;BMP180;1641;51.306;12.384;2023-04-12T11:37:07;98837.00;;;15.80
24639;BMP180;1641;51.306;12.384;2023-04-12T11:39:34;98857.00;;;16.60
24639;BMP180;1641;51.306;12.384;2023-04-12T11:42:02;98784.00;;;17.20
24639;BMP180;1641;51.306;12.384;2023-04-12T11:44:28;98843.00;;;16.70
24639;BMP180;1641;51.306;12.384;2023-04-12T11:46:53;98771.00;;;16.50
24639;BMP180;1641;51.306;12.384;2023-04-12T11:49:21;98792.00;;;16.30
24639;BMP180;1641;51.306;12.384;2023-04-12T11:51:47;98793.00;;;16.40
24639;BMP180;1641;51.306;12.384;2023-04-12T11:54:13;98828.00;;;16.90
24639;BMP180;1641;51.306;12.384;2023-04-12T11:56:39;98825.00;;;16.10
24639;BMP180;1641;51.306;12.384;2023-04-12T11:59:05;98828.00;;;16.10
24639;BMP180;1641;51.306;12.384;2023-04-12T12:01:33;98822.00;;;15.70
24639;BMP180;1641;51.306;12.384;2023-04-12T12:03:58;98808.00;;;16.30
24639;BMP180;1641;51.306;12.384;2023-04-12T12:06:25;98823.00;;;15.80
24639;BMP180;1641;51.306;12.384;2023-04-12T12:08:52;98817.00;;;15.10
24639;BMP180;1641;51.306;12.384;2023-04-12T12:11:19;98803.00;;;15.40
24639;BMP180;1641;51.306;12.384;2023-04-12T12:13:50;98827.00;;;14.90
24639;BMP180;1641;51.306;12.384;2023-04-12T12:16:17;98809.00;;;14.90
24639;BMP180;1641;51.306;12.384;2023-04-12T12:18:45;98825.00;;;14.90
24639;BMP180;1641;51.306;12.384;2023-04-12T12:21:11;98814.00;;;14.70
24639;BMP180;1641;51.306;12.384;2023-04-12T12:23:37;98794.00;;;14.80
24639;BMP180;1641;51.306;12.384;2023-04-12T12:26:03;98817.00;;;15.20
24639;BMP180;1641;51.306;12.384;2023-04-12T12:28:30;98816.00;;;15.00
24639;BMP180;1641;51.306;12.384;2023-04-12T12:31:05;98813.00;;;14.50
24639;BMP180;1641;51.306;12.384;2023-04-12T12:33:37;98827.00;;;14.70
24639;BMP180;1641;51.306;12.384;2023-04-12T12:36:03;98826.00;;;14.60
24639;BMP180;1641;51.306;12.384;2023-04-12T12:38:35;98832.00;;;14.20
24639;BMP180;1641;51.306;12.384;2023-04-12T12:43:47;98816.00;;;14.70
24639;BMP180;1641;51.306;12.384;2023-04-12T12:46:13;98838.00;;;14.50
24639;BMP180;1641;51.306;12.384;2023-04-12T12:48:45;98824.00;;;14.30
24639;BMP180;1641;51.306;12.384;2023-04-12T12:51:12;98829.00;;;14.00
24639;BMP180;1641;51.306;12.384;2023-04-12T12:53:41;98825.00;;;13.70
24639;BMP180;1641;51.306;12.384;2023-04-12T12:56:07;98829.00;;;14.10
24639;BMP180;1641;51.306;12.384;2023-04-12T12:58:33;98814.00;;;14.10
24639;BMP180;1641;51.306;12.384;2023-04-12T13:00:59;98811.00;;;13.80
24639;BMP180;1641;51.306;12.384;2023-04-12T13:03:24;98810.00;;;13.50
24639;BMP180;1641;51.306;12.384;2023-04-12T13:05:52;98748.00;;;13.30
24639;BMP180;1641;51.306;12.384;2023-04-12T13:08:17;98801.00;;;13.60
24639;BMP180;1641;51.306;12.384;2023-04-12T13:10:43;98805.00;;;13.60
24639;BMP180;1641;51.306;12.384;2023-04-12T13:13:08;98796.00;;;13.50
24639;BMP180;1641;51.306;12.384;2023-04-12T13:15:40;98788.00;;;13.50
24639;BMP180;1641;51.306;12.384;2023-04-12T13:18:08;98802.00;;;13.60
24639;BMP180;1641;51.306;12.384;2023-04-12T13:20:34;98799.00;;;13.20
24639;BMP180;1641;51.306;12.384;2023-04-12T13:23:02;98797.00;;;13.30
24639;BMP180;1641;51.306;12.384;2023-04-12T13:25:28;98763.00;;;12.80
24639;BMP180;1641;51.306;12.384;2023-04-12T13:27:53;98779.00;;;12.60
24639;BMP180;1641;51.306;12.384;2023-04-12T13:30:18;98770.00;;;12.50
24639;BMP180;1641;51.306;12.384;2023-04-12T13:32:47;98759.00;;;12.70
24639;BMP180;1641;51.306;12.384;2023-04-12T13:35:12;98746.00;;;12.70
24639;BMP180;1641;51.306;12.384;2023-04-12T13:37:43;98768.00;;;12.90
24639;BMP180;1641;51.306;12.384;2023-04-12T13:40:21;98729.00;;;13.00
24639;BMP180;1641;51.306;12.384;2023-04-12T13:42:46;98730.00;;;13.00
24639;BMP180;1641;51.306;12.384;2023-04-12T13:45:12;98725.00;;;13.00
24639;BMP180;1641;51.306;12.384;2023-04-12T13:47:37;98755.00;;;12.90
24639;BMP180;1641;51.306;12.384;2023-04-12T13:50:03;98726.00;;;12.90
24639;BMP180;1641;51.306;12.384;2023-04-12T13:52:34;98750.00;;;12.60
24639;BMP180;1641;51.306;12.384;2023-04-12T13:54:59;98738.00;;;12.50
24639;BMP180;1641;51.306;12.384;2023-04-12T13:57:25;98749.00;;;12.30
24639;BMP180;1641;51.306;12.384;2023-04-12T13:59:50;98716.00;;;12.40
24639;BMP180;1641;51.306;12.384;2023-04-12T14:02:15;98739.00;;;12.40
24639;BMP180;1641;51.306;12.384;2023-04-12T14:04:51;98747.00;;;12.50
24639;BMP180;1641;51.306;12.384;2023-04-12T14:07:17;98719.00;;;12.60
24639;BMP180;1641;51.306;12.384;2023-04-12T14:09:43;98732.00;;;12.50
24639;BMP180;1641;51.306;12.384;2023-04-12T14:12:08;98737.00;;;12.70
24639;BMP180;1641;51.306;12.384;2023-04-12T14:14:33;98697.00;;;12.70
24639;BMP180;1641;51.306;12.384;2023-04-12T14:16:58;98726.00;;;12.50
24639;BMP180;1641;51.306;12.384;2023-04-12T14:19:26;98721.00;;;12.60
24639;BMP180;1641;51.306;12.384;2023-04-12T14:21:54;98712.00;;;12.60
24639;BMP180;1641;51.306;12.384;2023-04-12T14:24:20;98716.00;;;12.70
24639;BMP180;1641;51.306;12.384;2023-04-12T14:26:55;98713.00;;;12.70
24639;BMP180;1641;51.306;12.384;2023-04-12T14:29:21;98709.00;;;13.00
24639;BMP180;1641;51.306;12.384;2023-04-12T14:31:46;98699.00;;;12.30